Time;durP1;ratioP1;P1;durP2;ratioP2;P2;SDS_P1;SDS_P2;PMS_P1;PMS_P2;Temp;Humidity;BMP_temperature;BMP_pressure;BME280_temperature;BME280_humidity;BME280_pressure;Samples;Min_cycle;Max_cycle;Signal;HPM_P1;HPM_P2
2022/02/18 00:01:47;;;;;;;12.23;2.45;;;;;;;;;;6216477;23;20141;-67
2022/02/18 00:04:13;;;;;;;16.45;2.03;;;;;;;;;;6216641;23;20137;-67
2022/02/18 00:06:39;;;;;;;11.15;2.15;;;;;;;;;;6216700;23;20149;-67
2022/02/18 00:09:05;;;;;;;11.70;2.20;;;;;;;;;;6216344;23;20164;-67
2022/02/18 00:11:31;;;;;;;10.60;1.98;;;;;;;;;;6216259;23;20202;-67
2022/02/18 00:13:57;;;;;;;12.82;2.60;;;;;;;;;;6216260;23;20180;-67
2022/02/18 00:16:24;;;;;;;8.63;1.88;;;;;;;;;;6216492;23;20172;-67
2022/02/18 00:18:49;;;;;;;9.68;1.73;;;;;;;;;;6216132;23;20145;-67
2022/02/18 00:21:15;;;;;;;14.25;2.28;;;;;;;;;;6216663;23;20141;-67
2022/02/18 00:23:41;;;;;;;10.68;2.30;;;;;;;;;;6216580;23;20155;-67
2022/02/18 00:26:08;;;;;;;11.55;2.50;;;;;;;;;;6216400;23;20141;-67
2022/02/18 00:28:34;;;;;;;13.30;2.35;;;;;;;;;;6216447;23;20446;-67
2022/02/18 00:31:00;;;;;;;19.58;2.80;;;;;;;;;;6215456;23;20161;-67
2022/02/18 00:33:26;;;;;;;10.50;2.30;;;;;;;;;;6216055;23;20588;-67
2022/02/18 00:35:52;;;;;;;9.48;2.15;;;;;;;;;;6214685;23;20164;-67
2022/02/18 00:38:18;;;;;;;8.98;1.90;;;;;;;;;;6216094;23;20152;-67
2022/02/18 00:40:45;;;;;;;9.65;2.10;;;;;;;;;;6216463;23;20437;-67
2022/02/18 00:43:11;;;;;;;14.80;2.35;;;;;;;;;;6216547;23;20149;-67
2022/02/18 00:45:37;;;;;;;10.48;2.25;;;;;;;;;;6216064;23;20568;-67
2022/02/18 00:48:03;;;;;;;11.20;2.35;;;;;;;;;;6216448;23;20145;-67
2022/02/18 00:50:29;;;;;;;9.05;1.70;;;;;;;;;;6215996;23;20141;-68
2022/02/18 00:52:55;;;;;;;16.15;2.50;;;;;;;;;;6216092;23;20141;-67
2022/02/18 00:55:21;;;;;;;10.10;1.80;;;;;;;;;;6215834;23;20511;-67
2022/02/18 00:57:47;;;;;;;13.48;2.05;;;;;;;;;;6215943;23;20176;-67
2022/02/18 01:00:15;;;;;;;8.40;1.45;;;;;;;;;;6215879;23;20437;-67
2022/02/18 01:02:41;;;;;;;8.85;1.60;;;;;;;;;;6216018;23;20136;-67
2022/02/18 01:05:07;;;;;;;10.85;2.45;;;;;;;;;;6216202;23;20145;-67
2022/02/18 01:07:33;;;;;;;9.88;1.77;;;;;;;;;;6216064;23;20216;-67
2022/02/18 01:09:59;;;;;;;9.95;1.63;;;;;;;;;;6215836;23;20148;-67
2022/02/18 01:12:25;;;;;;;8.63;1.60;;;;;;;;;;6215941;23;20145;-67
2022/02/18 01:14:51;;;;;;;10.20;2.08;;;;;;;;;;6215657;23;20240;-67
2022/02/18 01:17:17;;;;;;;11.02;1.80;;;;;;;;;;6216239;23;20168;-67
2022/02/18 01:19:43;;;;;;;17.92;2.45;;;;;;;;;;6215701;23;20429;-66
2022/02/18 01:22:09;;;;;;;7.28;2.00;;;;;;;;;;6216059;23;20141;-67
2022/02/18 01:24:37;;;;;;;12.73;1.80;;;;;;;;;;6215702;23;20151;-66
2022/02/18 01:27:03;;;;;;;6.53;1.52;;;;;;;;;;6215685;23;20611;-66
2022/02/18 01:29:29;;;;;;;6.57;1.48;;;;;;;;;;6215725;23;20137;-66
2022/02/18 01:31:55;;;;;;;9.27;1.77;;;;;;;;;;6215582;23;20167;-66
2022/02/18 01:34:21;;;;;;;6.13;1.73;;;;;;;;;;6215716;23;20141;-66
2022/02/18 01:36:47;;;;;;;13.68;2.33;;;;;;;;;;6215863;23;20172;-66
2022/02/18 01:39:13;;;;;;;11.20;1.98;;;;;;;;;;6215647;23;20137;-66
2022/02/18 01:41:38;;;;;;;5.65;1.65;;;;;;;;;;6216474;23;20148;-66
2022/02/18 01:44:05;;;;;;;9.48;1.98;;;;;;;;;;6217717;23;20137;-66
2022/02/18 01:46:32;;;;;;;8.32;1.63;;;;;;;;;;6217937;23;20152;-66
2022/02/18 01:48:58;;;;;;;13.77;2.22;;;;;;;;;;6222192;23;20137;-66
2022/02/18 01:51:24;;;;;;;14.27;2.00;;;;;;;;;;6227629;23;20148;-66
2022/02/18 01:53:51;;;;;;;10.20;1.73;;;;;;;;;;6217632;23;20168;-66
2022/02/18 01:56:17;;;;;;;10.75;1.92;;;;;;;;;;6217304;23;20160;-66
2022/02/18 01:58:43;;;;;;;8.13;2.10;;;;;;;;;;6217434;23;20141;-66
2022/02/18 02:01:10;;;;;;;14.13;2.22;;;;;;;;;;6217369;23;20137;-66
2022/02/18 02:03:36;;;;;;;7.70;1.67;;;;;;;;;;6217400;23;20141;-66
2022/02/18 02:06:02;;;;;;;13.82;2.10;;;;;;;;;;6217232;23;20145;-66
2022/02/18 02:08:28;;;;;;;6.55;1.70;;;;;;;;;;6217363;23;20409;-66
2022/02/18 02:10:55;;;;;;;14.25;2.60;;;;;;;;;;6217561;23;20159;-66
2022/02/18 02:13:31;;;;;;;6.72;1.92;;;;;;;;;;6217712;23;20152;-66
2022/02/18 02:15:58;;;;;;;11.27;2.40;;;;;;;;;;6217104;23;20160;-66
2022/02/18 02:18:23;;;;;;;12.35;2.38;;;;;;;;;;6217660;23;20145;-66
2022/02/18 02:20:49;;;;;;;6.50;1.77;;;;;;;;;;6217578;23;20192;-66
2022/02/18 02:23:16;;;;;;;13.10;1.85;;;;;;;;;;6217609;23;20145;-66
2022/02/18 02:25:42;;;;;;;12.35;1.73;;;;;;;;;;6217397;23;20236;-66
2022/02/18 02:28:08;;;;;;;7.55;2.03;;;;;;;;;;6217184;23;20183;-66
2022/02/18 02:30:34;;;;;;;11.73;2.08;;;;;;;;;;6216946;23;20922;-66
2022/02/18 02:33:00;;;;;;;15.20;2.05;;;;;;;;;;6217607;23;20137;-66
2022/02/18 02:35:26;;;;;;;9.73;2.15;;;;;;;;;;6217381;23;20188;-66
2022/02/18 02:37:52;;;;;;;12.95;2.78;;;;;;;;;;6217521;23;20656;-66
2022/02/18 02:40:18;;;;;;;15.60;2.33;;;;;;;;;;6217289;23;20171;-66
2022/02/18 02:42:44;;;;;;;14.20;2.30;;;;;;;;;;6217504;23;20216;-66
2022/02/18 02:45:10;;;;;;;14.07;3.28;;;;;;;;;;6217301;23;20141;-66
2022/02/18 02:47:38;;;;;;;14.35;2.67;;;;;;;;;;6217150;23;20152;-66
2022/02/18 02:50:04;;;;;;;9.52;2.08;;;;;;;;;;6217249;23;20145;-65
2022/02/18 02:52:30;;;;;;;9.90;2.42;;;;;;;;;;6216965;23;20141;-66
2022/02/18 02:54:56;;;;;;;11.90;2.58;;;;;;;;;;6217096;23;20176;-66
2022/02/18 02:57:22;;;;;;;21.35;2.92;;;;;;;;;;6217158;23;20141;-66
2022/02/18 02:59:48;;;;;;;9.73;2.20;;;;;;;;;;6217132;23;20152;-66
2022/02/18 03:02:14;;;;;;;14.05;2.55;;;;;;;;;;6217402;23;20732;-66
2022/02/18 03:04:40;;;;;;;12.57;2.22;;;;;;;;;;6217024;23;20447;-66
2022/02/18 03:07:06;;;;;;;14.05;2.72;;;;;;;;;;6217195;23;20236;-66
2022/02/18 03:09:32;;;;;;;12.88;2.58;;;;;;;;;;6216843;23;20137;-66
2022/02/18 03:11:58;;;;;;;10.23;2.47;;;;;;;;;;6216848;23;20255;-66
2022/02/18 03:14:25;;;;;;;12.02;2.95;;;;;;;;;;6216774;23;20141;-66
2022/02/18 03:16:51;;;;;;;14.27;2.88;;;;;;;;;;6216878;23;20179;-66
2022/02/18 03:19:17;;;;;;;10.27;2.35;;;;;;;;;;6216710;23;20214;-66
2022/02/18 03:21:43;;;;;;;11.20;2.40;;;;;;;;;;6216613;23;20141;-65
2022/02/18 03:24:09;;;;;;;10.43;2.28;;;;;;;;;;6216868;23;20196;-66
2022/02/18 03:26:35;;;;;;;9.50;2.10;;;;;;;;;;6216598;23;20162;-66
2022/02/18 03:29:01;;;;;;;15.07;2.72;;;;;;;;;;6216807;23;20153;-66
2022/02/18 03:31:27;;;;;;;15.63;2.20;;;;;;;;;;6216760;23;20161;-65
2022/02/18 03:33:53;;;;;;;10.82;2.28;;;;;;;;;;6215734;23;20149;-65
2022/02/18 03:36:18;;;;;;;11.15;2.00;;;;;;;;;;6216532;23;20175;-66
2022/02/18 03:38:44;;;;;;;12.25;2.10;;;;;;;;;;6216518;23;20145;-66
2022/02/18 03:41:10;;;;;;;7.28;2.38;;;;;;;;;;6216881;23;20145;-66
2022/02/18 03:43:36;;;;;;;11.63;1.85;;;;;;;;;;6216401;23;20137;-66
2022/02/18 03:46:02;;;;;;;11.07;1.90;;;;;;;;;;6216718;23;20469;-66
2022/02/18 03:48:30;;;;;;;14.60;2.72;;;;;;;;;;6216802;23;20151;-66
2022/02/18 03:50:56;;;;;;;11.15;2.33;;;;;;;;;;6216707;23;20184;-66
2022/02/18 03:53:22;;;;;;;14.52;2.78;;;;;;;;;;6216655;23;20172;-66
2022/02/18 03:55:49;;;;;;;12.05;2.45;;;;;;;;;;6216704;23;20165;-66
2022/02/18 03:58:15;;;;;;;13.85;2.20;;;;;;;;;;6216639;23;20137;-66
2022/02/18 04:00:41;;;;;;;9.10;2.13;;;;;;;;;;6216264;23;20152;-66
2022/02/18 04:03:07;;;;;;;11.27;2.53;;;;;;;;;;6216046;23;20136;-65
2022/02/18 04:05:33;;;;;;;14.73;2.50;;;;;;;;;;6216413;23;20152;-66
2022/02/18 04:07:59;;;;;;;13.73;2.17;;;;;;;;;;6216290;23;20145;-66
2022/02/18 04:10:25;;;;;;;13.18;2.60;;;;;;;;;;6216480;23;20498;-66
2022/02/18 04:12:51;;;;;;;10.60;2.88;;;;;;;;;;6216115;23;20145;-66
2022/02/18 04:15:17;;;;;;;12.98;2.58;;;;;;;;;;6216015;23;20486;-66
2022/02/18 04:17:43;;;;;;;11.65;1.95;;;;;;;;;;6216127;23;20144;-66
2022/02/18 04:20:09;;;;;;;10.82;2.20;;;;;;;;;;6216519;23;20149;-66
2022/02/18 04:22:35;;;;;;;15.13;2.58;;;;;;;;;;6216126;23;20152;-66
2022/02/18 04:25:01;;;;;;;13.48;2.10;;;;;;;;;;6216086;23;20553;-66
2022/02/18 04:27:27;;;;;;;12.52;2.28;;;;;;;;;;6215921;23;20173;-66
2022/02/18 04:29:53;;;;;;;13.68;2.42;;;;;;;;;;6216489;23;20227;-67
2022/02/18 04:32:19;;;;;;;9.20;1.92;;;;;;;;;;6215947;23;20159;-67
2022/02/18 04:34:45;;;;;;;8.98;2.00;;;;;;;;;;6216406;23;20447;-66
2022/02/18 04:37:12;;;;;;;18.27;2.80;;;;;;;;;;6216182;23;20169;-67
2022/02/18 04:39:38;;;;;;;13.85;3.15;;;;;;;;;;6215916;23;20603;-66
2022/02/18 04:42:04;;;;;;;14.27;2.72;;;;;;;;;;6215975;23;20224;-66
2022/02/18 04:44:30;;;;;;;10.18;2.25;;;;;;;;;;6215983;23;20165;-66
2022/02/18 04:46:56;;;;;;;11.65;1.90;;;;;;;;;;6215891;23;20204;-66
2022/02/18 04:49:22;;;;;;;13.80;1.95;;;;;;;;;;6216056;23;20447;-65
2022/02/18 04:51:49;;;;;;;12.98;1.80;;;;;;;;;;6215970;23;20145;-65
2022/02/18 04:54:15;;;;;;;10.85;2.15;;;;;;;;;;6216431;23;20235;-64
2022/02/18 04:56:41;;;;;;;9.00;2.33;;;;;;;;;;6216284;23;20172;-65
2022/02/18 04:59:07;;;;;;;9.50;2.25;;;;;;;;;;6215968;23;20625;-65
2022/02/18 05:01:32;;;;;;;10.82;2.30;;;;;;;;;;6215856;23;20140;-65
2022/02/18 05:03:58;;;;;;;10.40;1.83;;;;;;;;;;6216126;23;20286;-65
2022/02/18 05:06:24;;;;;;;12.52;2.45;;;;;;;;;;6216075;23;20633;-65
2022/02/18 05:08:50;;;;;;;10.88;1.85;;;;;;;;;;6215950;23;20141;-65
2022/02/18 05:11:16;;;;;;;12.52;1.95;;;;;;;;;;6216349;23;20175;-65
2022/02/18 05:13:42;;;;;;;13.93;2.38;;;;;;;;;;6216063;23;20148;-64
2022/02/18 05:16:08;;;;;;;14.20;2.05;;;;;;;;;;6216553;23;20173;-65
2022/02/18 05:18:37;;;;;;;7.45;1.70;;;;;;;;;;6218153;23;20145;-65
2022/02/18 05:21:02;;;;;;;17.95;2.95;;;;;;;;;;6218197;23;20141;-65
2022/02/18 05:23:28;;;;;;;11.35;2.60;;;;;;;;;;6217949;23;20484;-66
2022/02/18 05:25:54;;;;;;;11.45;2.30;;;;;;;;;;6218519;23;20252;-65
2022/02/18 05:28:20;;;;;;;7.57;1.83;;;;;;;;;;6217914;23;20228;-65
2022/02/18 05:30:46;;;;;;;12.73;2.15;;;;;;;;;;6217875;23;20199;-65
2022/02/18 05:33:12;;;;;;;14.43;2.65;;;;;;;;;;6218006;23;20436;-65
2022/02/18 05:35:39;;;;;;;9.27;2.13;;;;;;;;;;6218278;23;20169;-65
2022/02/18 05:38:05;;;;;;;11.38;1.98;;;;;;;;;;6218041;23;20141;-66
2022/02/18 05:40:31;;;;;;;10.38;2.22;;;;;;;;;;6218071;23;20228;-65
2022/02/18 05:42:57;;;;;;;12.32;2.28;;;;;;;;;;6217914;23;20505;-65
2022/02/18 05:45:23;;;;;;;10.40;2.28;;;;;;;;;;6218176;23;20187;-65
2022/02/18 05:47:49;;;;;;;8.35;1.83;;;;;;;;;;6218297;23;20145;-65
2022/02/18 05:50:15;;;;;;;12.60;2.53;;;;;;;;;;6221343;23;20148;-65
2022/02/18 05:52:43;;;;;;;11.90;2.70;;;;;;;;;;6218057;23;20161;-65
2022/02/18 05:55:09;;;;;;;12.02;2.50;;;;;;;;;;6218241;23;20183;-65
2022/02/18 05:57:35;;;;;;;12.77;2.05;;;;;;;;;;6217749;23;20436;-65
2022/02/18 06:00:02;;;;;;;9.60;2.30;;;;;;;;;;6217964;23;20141;-65
2022/02/18 06:02:27;;;;;;;10.63;2.47;;;;;;;;;;6217748;23;20176;-65
2022/02/18 06:04:53;;;;;;;14.70;2.38;;;;;;;;;;6217445;23;20235;-65
2022/02/18 06:07:19;;;;;;;10.13;1.95;;;;;;;;;;6217640;23;20141;-65
2022/02/18 06:09:45;;;;;;;13.82;2.33;;;;;;;;;;6217869;23;20145;-65
2022/02/18 06:12:11;;;;;;;10.23;2.10;;;;;;;;;;6217530;23;20244;-64
2022/02/18 06:14:38;;;;;;;9.63;2.45;;;;;;;;;;6217244;23;20152;-64
2022/02/18 06:17:09;;;;;;;9.40;2.63;;;;;;;;;;6217772;23;20137;-64
2022/02/18 06:19:35;;;;;;;13.55;2.92;;;;;;;;;;6217517;23;20566;-65
2022/02/18 06:22:01;;;;;;;8.55;1.90;;;;;;;;;;6217670;23;20149;-65
2022/02/18 06:24:27;;;;;;;11.05;2.22;;;;;;;;;;6217235;23;20508;-65
2022/02/18 06:26:53;;;;;;;14.45;2.60;;;;;;;;;;6217275;23;20291;-65
2022/02/18 06:29:18;;;;;;;8.90;1.90;;;;;;;;;;6217237;23;20587;-65
2022/02/18 06:31:44;;;;;;;11.98;2.00;;;;;;;;;;6217265;23;20240;-65
2022/02/18 06:34:10;;;;;;;12.40;2.15;;;;;;;;;;6217699;23;20576;-65
2022/02/18 06:36:36;;;;;;;13.10;2.60;;;;;;;;;;6217141;23;20599;-65
2022/02/18 06:39:03;;;;;;;9.90;2.10;;;;;;;;;;6217193;23;20141;-65
2022/02/18 06:41:29;;;;;;;11.20;1.70;;;;;;;;;;6217388;23;20169;-65
2022/02/18 06:43:55;;;;;;;8.05;1.73;;;;;;;;;;6217175;23;20204;-65
2022/02/18 06:46:21;;;;;;;15.30;2.47;;;;;;;;;;6217214;23;20612;-65
2022/02/18 06:48:47;;;;;;;12.93;2.47;;;;;;;;;;6217041;23;20176;-66
2022/02/18 06:51:14;;;;;;;12.45;2.17;;;;;;;;;;6217146;23;20144;-65
2022/02/18 06:53:39;;;;;;;9.63;1.92;;;;;;;;;;6217114;23;20149;-65
2022/02/18 06:56:06;;;;;;;10.85;1.83;;;;;;;;;;6217005;23;20646;-65
2022/02/18 06:58:33;;;;;;;12.93;2.38;;;;;;;;;;6217190;23;20232;-65
2022/02/18 07:00:59;;;;;;;16.40;2.97;;;;;;;;;;6216808;23;20176;-65
2022/02/18 07:03:25;;;;;;;9.68;2.03;;;;;;;;;;6216871;23;20145;-65
2022/02/18 07:05:51;;;;;;;7.40;1.90;;;;;;;;;;6216884;23;20545;-65
2022/02/18 07:08:17;;;;;;;6.63;2.13;;;;;;;;;;6216950;23;20141;-65
2022/02/18 07:10:43;;;;;;;11.00;2.15;;;;;;;;;;6216766;23;20151;-65
2022/02/18 07:13:09;;;;;;;9.52;1.83;;;;;;;;;;6217186;23;20149;-65
2022/02/18 07:15:37;;;;;;;12.40;2.33;;;;;;;;;;6216605;23;20519;-64
2022/02/18 07:18:03;;;;;;;6.30;1.63;;;;;;;;;;6217118;23;20564;-65
2022/02/18 07:20:29;;;;;;;10.30;1.77;;;;;;;;;;6216726;23;20137;-65
2022/02/18 07:22:55;;;;;;;10.80;2.20;;;;;;;;;;6216846;23;20141;-65
2022/02/18 07:25:22;;;;;;;5.65;1.70;;;;;;;;;;6216868;23;20141;-65
2022/02/18 07:27:48;;;;;;;9.07;2.20;;;;;;;;;;6216920;23;20157;-65
2022/02/18 07:30:14;;;;;;;9.05;2.00;;;;;;;;;;6216853;23;20144;-65
2022/02/18 07:32:41;;;;;;;10.68;2.20;;;;;;;;;;6217048;23;20500;-65
2022/02/18 07:35:10;;;;;;;10.73;2.05;;;;;;;;;;6217018;23;20195;-65
2022/02/18 07:37:36;;;;;;;9.40;2.20;;;;;;;;;;6217164;23;20151;-65
2022/02/18 07:40:02;;;;;;;7.32;1.58;;;;;;;;;;6216640;23;20155;-65
2022/02/18 07:42:28;;;;;;;11.57;2.20;;;;;;;;;;6217209;23;20137;-65
2022/02/18 07:44:54;;;;;;;7.85;2.22;;;;;;;;;;6217017;23;20203;-65
2022/02/18 07:47:20;;;;;;;11.60;2.03;;;;;;;;;;6218181;23;20423;-65
2022/02/18 07:49:47;;;;;;;9.25;2.10;;;;;;;;;;6218729;23;20160;-66
2022/02/18 07:52:15;;;;;;;7.70;1.95;;;;;;;;;;6218652;23;20498;-66
2022/02/18 07:54:41;;;;;;;10.32;2.08;;;;;;;;;;6217893;23;20152;-66
2022/02/18 07:57:07;;;;;;;9.00;2.17;;;;;;;;;;6218001;23;20219;-65
2022/02/18 07:59:33;;;;;;;14.18;2.15;;;;;;;;;;6218665;23;20176;-66
2022/02/18 08:01:59;;;;;;;6.85;1.60;;;;;;;;;;6217248;23;20153;-66
2022/02/18 08:04:25;;;;;;;13.48;1.83;;;;;;;;;;6217533;23;20204;-65
2022/02/18 08:06:51;;;;;;;11.07;2.15;;;;;;;;;;6216713;23;20160;-66
2022/02/18 08:09:17;;;;;;;9.02;1.50;;;;;;;;;;6216549;23;20144;-66
2022/02/18 08:11:43;;;;;;;10.07;2.08;;;;;;;;;;6216812;23;20141;-66
2022/02/18 08:14:08;;;;;;;10.15;2.25;;;;;;;;;;6216627;23;20145;-66
2022/02/18 08:16:34;;;;;;;6.70;1.98;;;;;;;;;;6217049;23;20251;-66
2022/02/18 08:19:00;;;;;;;7.35;1.83;;;;;;;;;;6216927;23;20231;-66
2022/02/18 08:21:26;;;;;;;9.57;2.10;;;;;;;;;;6216256;23;20610;-66
2022/02/18 08:23:52;;;;;;;6.03;1.80;;;;;;;;;;6216580;23;20165;-66
2022/02/18 08:26:22;;;;;;;13.20;1.90;;;;;;;;;;6216501;23;20157;-66
2022/02/18 08:28:49;;;;;;;5.20;1.77;;;;;;;;;;6216524;23;20153;-66
2022/02/18 08:31:15;;;;;;;9.13;1.60;;;;;;;;;;6216418;23;20420;-66
2022/02/18 08:33:44;;;;;;;8.45;2.28;;;;;;;;;;6216966;23;20145;-66
2022/02/18 08:36:11;;;;;;;6.03;1.90;;;;;;;;;;6216693;23;20589;-66
2022/02/18 08:38:37;;;;;;;9.32;1.85;;;;;;;;;;6216210;23;20145;-66
2022/02/18 08:41:03;;;;;;;6.45;1.50;;;;;;;;;;6216460;23;20199;-66
2022/02/18 08:43:29;;;;;;;9.18;1.73;;;;;;;;;;6216734;23;20141;-66
2022/02/18 08:45:55;;;;;;;7.25;1.85;;;;;;;;;;6216383;23;20434;-66
2022/02/18 08:48:21;;;;;;;6.07;1.73;;;;;;;;;;6215795;23;20152;-66
2022/02/18 08:50:47;;;;;;;12.25;2.17;;;;;;;;;;6216011;23;20546;-66
2022/02/18 08:53:13;;;;;;;13.45;2.00;;;;;;;;;;6218658;23;20144;-66
2022/02/18 08:55:39;;;;;;;10.82;2.30;;;;;;;;;;6218887;23;20165;-65
2022/02/18 08:58:05;;;;;;;7.82;1.70;;;;;;;;;;6218005;23;20168;-66
2022/02/18 09:00:31;;;;;;;6.72;1.40;;;;;;;;;;6218188;23;20148;-66
2022/02/18 09:02:57;;;;;;;8.45;2.00;;;;;;;;;;6218586;23;20149;-66
2022/02/18 09:05:24;;;;;;;6.07;1.40;;;;;;;;;;6217973;23;20722;-66
2022/02/18 09:07:50;;;;;;;8.80;1.83;;;;;;;;;;6218167;23;20572;-66
2022/02/18 09:10:16;;;;;;;8.70;1.92;;;;;;;;;;6218175;23;20156;-66
2022/02/18 09:12:42;;;;;;;7.95;1.38;;;;;;;;;;6218423;23;20149;-66
2022/02/18 09:15:09;;;;;;;4.88;1.48;;;;;;;;;;6218184;23;20173;-66
2022/02/18 09:17:35;;;;;;;7.30;1.92;;;;;;;;;;6218418;23;20152;-65
2022/02/18 09:20:01;;;;;;;10.35;1.45;;;;;;;;;;6217872;23;20144;-66
2022/02/18 09:22:27;;;;;;;7.35;1.77;;;;;;;;;;6218023;23;20141;-66
2022/02/18 09:24:53;;;;;;;6.93;2.28;;;;;;;;;;6217739;23;20137;-66
2022/02/18 09:27:19;;;;;;;6.10;1.77;;;;;;;;;;6218902;23;20318;-65
2022/02/18 09:29:45;;;;;;;5.78;1.85;;;;;;;;;;6218794;23;20568;-65
2022/02/18 09:32:11;;;;;;;8.25;1.90;;;;;;;;;;6217914;23;20231;-66
2022/02/18 09:34:37;;;;;;;9.32;2.03;;;;;;;;;;6218193;23;20141;-66
2022/02/18 09:37:04;;;;;;;9.93;2.05;;;;;;;;;;6218306;23;20226;-66
2022/02/18 09:39:30;;;;;;;6.07;1.60;;;;;;;;;;6218637;23;20154;-67
2022/02/18 09:41:56;;;;;;;8.32;1.90;;;;;;;;;;6219139;23;20469;-66
2022/02/18 09:44:25;;;;;;;10.80;2.00;;;;;;;;;;6231542;23;20164;-66
2022/02/18 09:46:51;;;;;;;5.25;1.88;;;;;;;;;;6234333;23;20144;-66
2022/02/18 09:49:17;;;;;;;5.45;1.83;;;;;;;;;;6220062;23;20141;-65
2022/02/18 09:51:44;;;;;;;8.70;2.10;;;;;;;;;;6218281;23;20453;-66
2022/02/18 09:54:10;;;;;;;6.35;1.70;;;;;;;;;;6218758;23;20145;-66
2022/02/18 09:56:40;;;;;;;6.53;2.05;;;;;;;;;;6219632;23;20516;-67
2022/02/18 09:59:08;;;;;;;10.25;2.00;;;;;;;;;;6219155;23;20137;-66
2022/02/18 10:01:34;;;;;;;8.45;2.15;;;;;;;;;;6218974;23;20141;-67
2022/02/18 10:04:01;;;;;;;7.97;1.90;;;;;;;;;;6220178;23;20256;-66
2022/02/18 10:06:30;;;;;;;6.60;2.08;;;;;;;;;;6218035;23;20149;-66
2022/02/18 10:08:58;;;;;;;5.10;1.58;;;;;;;;;;6217653;23;20145;-66
2022/02/18 10:11:24;;;;;;;6.50;2.22;;;;;;;;;;6218204;23;20155;-66
2022/02/18 10:13:53;;;;;;;9.35;2.20;;;;;;;;;;6218031;23;20156;-66
2022/02/18 10:16:20;;;;;;;7.50;2.30;;;;;;;;;;6217847;23;20168;-66
2022/02/18 10:18:49;;;;;;;8.90;2.10;;;;;;;;;;6217869;23;20145;-67
2022/02/18 10:21:16;;;;;;;5.93;2.10;;;;;;;;;;6217676;23;20199;-66
2022/02/18 10:23:42;;;;;;;8.32;1.90;;;;;;;;;;6217491;23;20140;-65
2022/02/18 10:26:08;;;;;;;9.98;2.10;;;;;;;;;;6217427;23;20243;-65
2022/02/18 10:28:34;;;;;;;7.15;2.42;;;;;;;;;;6217687;23;20145;-66
2022/02/18 10:31:05;;;;;;;9.40;2.50;;;;;;;;;;6217881;23;20437;-66
2022/02/18 10:33:35;;;;;;;10.27;2.55;;;;;;;;;;6218065;23;20140;-67
2022/02/18 10:36:01;;;;;;;10.27;2.22;;;;;;;;;;6217922;23;20177;-67
2022/02/18 10:38:47;;;;;;;7.13;2.25;;;;;;;;;;6222368;23;20396;-67
2022/02/18 10:41:19;;;;;;;9.35;2.40;;;;;;;;;;6217257;23;20216;-66
2022/02/18 10:43:46;;;;;;;7.47;2.55;;;;;;;;;;6217317;23;20224;-66
2022/02/18 10:46:12;;;;;;;5.25;2.25;;;;;;;;;;6216813;23;20441;-66
2022/02/18 10:48:48;;;;;;;5.40;2.20;;;;;;;;;;6216992;23;20145;-66
2022/02/18 10:51:16;;;;;;;8.20;2.97;;;;;;;;;;6217409;23;20144;-66
2022/02/18 10:53:44;;;;;;;8.43;2.55;;;;;;;;;;6217236;23;20148;-67
2022/02/18 10:56:12;;;;;;;9.20;2.63;;;;;;;;;;6216755;23;20169;-67
2022/02/18 10:58:41;;;;;;;6.85;2.60;;;;;;;;;;6217290;23;20149;-67
2022/02/18 11:01:23;;;;;;;7.10;2.42;;;;;;;;;;6217466;23;20509;-66
2022/02/18 11:03:53;;;;;;;7.22;2.70;;;;;;;;;;6216868;23;20145;-66
2022/02/18 11:06:28;;;;;;;9.43;3.17;;;;;;;;;;6216836;23;20149;-66
2022/02/18 11:08:55;;;;;;;6.50;2.33;;;;;;;;;;6216991;23;20144;-66
2022/02/18 11:11:22;;;;;;;6.72;2.53;;;;;;;;;;6216787;23;20168;-66
2022/02/18 11:13:49;;;;;;;9.57;3.33;;;;;;;;;;6216732;23;20212;-66
2022/02/18 11:16:16;;;;;;;9.63;2.80;;;;;;;;;;6216577;23;20197;-67
2022/02/18 11:18:42;;;;;;;8.25;3.03;;;;;;;;;;6216093;23;20141;-65
2022/02/18 11:21:09;;;;;;;8.95;3.40;;;;;;;;;;6216818;23;20491;-64
2022/02/18 11:23:35;;;;;;;10.45;3.72;;;;;;;;;;6216676;23;20242;-65
2022/02/18 11:26:01;;;;;;;10.02;3.20;;;;;;;;;;6216820;23;20183;-66
2022/02/18 11:28:28;;;;;;;7.25;3.47;;;;;;;;;;6216616;23;20156;-65
2022/02/18 11:30:57;;;;;;;10.98;3.55;;;;;;;;;;6216624;23;20156;-65
2022/02/18 11:33:41;;;;;;;10.27;3.10;;;;;;;;;;6216545;23;20212;-64
2022/02/18 11:36:27;;;;;;;8.38;3.58;;;;;;;;;;6216687;23;20191;-66
2022/02/18 11:39:00;;;;;;;10.23;3.28;;;;;;;;;;6215691;23;20179;-66
2022/02/18 11:41:33;;;;;;;13.48;3.20;;;;;;;;;;6216268;23;20129;-65
2022/02/18 11:44:01;;;;;;;7.80;3.22;;;;;;;;;;6217309;23;20172;-65
2022/02/18 11:46:28;;;;;;;9.60;3.20;;;;;;;;;;6216562;23;20236;-65
2022/02/18 11:48:56;;;;;;;11.18;3.50;;;;;;;;;;6216764;23;20199;-65
2022/02/18 11:51:23;;;;;;;10.63;3.10;;;;;;;;;;6216259;23;20489;-64
2022/02/18 11:53:50;;;;;;;13.10;3.70;;;;;;;;;;6216626;23;20192;-65
2022/02/18 11:56:17;;;;;;;11.23;3.53;;;;;;;;;;6216691;23;20473;-65
2022/02/18 11:58:54;;;;;;;8.30;3.30;;;;;;;;;;6216944;23;20210;-64
2022/02/18 12:01:40;;;;;;;7.60;3.50;;;;;;;;;;6216706;23;20151;-66
2022/02/18 12:04:19;;;;;;;10.45;3.85;;;;;;;;;;6216517;23;20212;-64
2022/02/18 12:07:04;;;;;;;11.73;3.50;;;;;;;;;;6216624;23;20206;-66
2022/02/18 12:09:57;;;;;;;11.63;3.67;;;;;;;;;;6216865;23;20185;-67
2022/02/18 12:12:24;;;;;;;8.65;3.90;;;;;;;;;;6216258;23;20542;-66
2022/02/18 12:14:51;;;;;;;8.75;4.25;;;;;;;;;;6215902;23;20568;-66
2022/02/18 12:17:19;;;;;;;7.35;3.80;;;;;;;;;;6216004;23;20517;-66
2022/02/18 12:19:45;;;;;;;9.73;3.90;;;;;;;;;;6214756;23;20145;-66
2022/02/18 12:22:11;;;;;;;11.80;3.95;;;;;;;;;;6215942;23;20496;-66
2022/02/18 12:24:42;;;;;;;10.68;4.10;;;;;;;;;;6216026;23;20588;-66
2022/02/18 12:27:27;;;;;;;8.90;3.50;;;;;;;;;;6215926;23;20149;-67
2022/02/18 12:29:54;;;;;;;6.25;3.28;;;;;;;;;;6216210;23;20156;-67
2022/02/18 12:32:20;;;;;;;8.15;3.33;;;;;;;;;;6214595;23;20169;-66
2022/02/18 12:34:58;;;;;;;9.57;3.22;;;;;;;;;;6216213;23;20450;-66
2022/02/18 12:37:24;;;;;;;7.20;3.13;;;;;;;;;;6215937;23;20152;-64
2022/02/18 12:39:54;;;;;;;7.32;3.40;;;;;;;;;;6215989;23;20461;-65
2022/02/18 12:42:25;;;;;;;8.70;3.55;;;;;;;;;;6216305;23;20195;-65
2022/02/18 12:44:53;;;;;;;7.03;3.78;;;;;;;;;;6216184;23;20156;-64
2022/02/18 12:47:29;;;;;;;7.18;3.90;;;;;;;;;;6216210;23;20172;-66
2022/02/18 12:49:56;;;;;;;10.30;4.30;;;;;;;;;;6216323;23;20125;-66
2022/02/18 12:52:25;;;;;;;8.07;3.63;;;;;;;;;;6216242;23;20163;-64
2022/02/18 12:54:52;;;;;;;6.35;4.00;;;;;;;;;;6216087;23;20151;-65
2022/02/18 12:57:19;;;;;;;9.68;3.80;;;;;;;;;;6215836;23;20571;-65
2022/02/18 12:59:45;;;;;;;7.78;3.70;;;;;;;;;;6216191;23;20165;-66
2022/02/18 13:02:12;;;;;;;7.53;3.22;;;;;;;;;;6216626;23;20502;-65
2022/02/18 13:04:38;;;;;;;5.50;3.15;;;;;;;;;;6216802;23;20228;-66
2022/02/18 13:07:05;;;;;;;8.05;3.15;;;;;;;;;;6217044;23;20496;-66
2022/02/18 13:09:32;;;;;;;6.20;2.90;;;;;;;;;;6216184;23;20156;-67
2022/02/18 13:11:58;;;;;;;6.05;2.72;;;;;;;;;;6216420;23;20145;-66
2022/02/18 13:14:24;;;;;;;5.25;3.03;;;;;;;;;;6216120;23;20451;-66
2022/02/18 13:16:50;;;;;;;6.35;2.90;;;;;;;;;;6215725;23;20161;-64
2022/02/18 13:19:16;;;;;;;5.15;2.65;;;;;;;;;;6215828;23;20203;-66
2022/02/18 13:21:42;;;;;;;8.10;2.95;;;;;;;;;;6215899;23;20145;-66
2022/02/18 13:24:08;;;;;;;5.18;2.70;;;;;;;;;;6216078;23;20137;-64
2022/02/18 13:26:34;;;;;;;5.72;2.88;;;;;;;;;;6216292;23;20251;-66
2022/02/18 13:29:00;;;;;;;6.25;2.70;;;;;;;;;;6215317;23;20236;-66
2022/02/18 13:31:26;;;;;;;6.30;2.78;;;;;;;;;;6222351;23;20165;-65
2022/02/18 13:33:53;;;;;;;5.47;2.67;;;;;;;;;;6217576;23;20232;-66
2022/02/18 13:36:29;;;;;;;4.88;2.88;;;;;;;;;;6216041;23;20200;-64
2022/02/18 13:38:57;;;;;;;4.78;2.78;;;;;;;;;;6217878;23;20220;-64
2022/02/18 13:41:27;;;;;;;9.35;2.97;;;;;;;;;;6218366;23;20176;-66
2022/02/18 13:43:56;;;;;;;6.38;3.20;;;;;;;;;;6218330;23;20151;-65
2022/02/18 13:46:32;;;;;;;6.18;2.55;;;;;;;;;;6217880;23;20545;-65
2022/02/18 13:48:59;;;;;;;5.60;2.75;;;;;;;;;;6217782;23;20220;-66
2022/02/18 13:51:27;;;;;;;7.35;2.60;;;;;;;;;;6217899;23;20220;-66
2022/02/18 13:53:53;;;;;;;6.95;3.10;;;;;;;;;;6217725;23;20151;-66
2022/02/18 13:56:26;;;;;;;8.15;3.20;;;;;;;;;;6217686;23;20169;-65
2022/02/18 13:58:52;;;;;;;6.35;3.15;;;;;;;;;;6218067;23;20464;-65
2022/02/18 14:01:20;;;;;;;11.13;3.50;;;;;;;;;;6218612;23;20141;-65
2022/02/18 14:03:54;;;;;;;7.53;2.85;;;;;;;;;;6218524;23;20141;-65
2022/02/18 14:06:20;;;;;;;5.85;3.20;;;;;;;;;;6218491;23;20155;-65
2022/02/18 14:08:55;;;;;;;5.72;2.83;;;;;;;;;;6218539;23;20455;-65
2022/02/18 14:11:21;;;;;;;8.20;3.42;;;;;;;;;;6218460;23;20553;-66
2022/02/18 14:13:47;;;;;;;7.60;2.92;;;;;;;;;;6218921;23;20152;-66
2022/02/18 14:16:15;;;;;;;4.43;3.20;;;;;;;;;;6218839;23;20452;-66
2022/02/18 14:19:00;;;;;;;6.88;3.00;;;;;;;;;;6219152;23;20136;-65
2022/02/18 14:21:30;;;;;;;9.25;3.28;;;;;;;;;;6219103;23;20186;-65
2022/02/18 14:23:58;;;;;;;9.65;3.47;;;;;;;;;;6219531;23;20136;-64
2022/02/18 14:26:27;;;;;;;6.85;3.00;;;;;;;;;;6219568;23;20460;-65
2022/02/18 14:28:54;;;;;;;4.85;2.90;;;;;;;;;;6219372;23;20155;-65
2022/02/18 14:31:22;;;;;;;5.22;3.08;;;;;;;;;;6219155;23;20526;-66
2022/02/18 14:33:55;;;;;;;8.35;2.55;;;;;;;;;;6218769;23;20149;-66
2022/02/18 14:36:28;;;;;;;4.32;2.50;;;;;;;;;;6218706;23;20579;-66